Time;durP1;ratioP1;P1;durP2;ratioP2;P2;SDS_P1;SDS_P2;PMS_P1;PMS_P2;Temp;Humidity;BMP_temperature;BMP_pressure;BME280_temperature;BME280_humidity;BME280_pressure;Samples;Min_cycle;Max_cycle;Signal;HPM_P1;HPM_P2
2023/07/08 00:00:21;;;;;;;8.77;7.20;;;26.50;32.80;;;;;;4993751;28;20418;-50
2023/07/08 00:02:47;;;;;;;7.70;6.90;;;26.40;33.10;;;;;;4993808;28;20484;-50
2023/07/08 00:05:15;;;;;;;7.97;7.13;;;26.50;33.30;;;;;;4998640;28;20468;-49
2023/07/08 00:07:41;;;;;;;10.13;6.70;;;26.30;33.90;;;;;;4993690;28;20596;-50
2023/07/08 00:10:24;;;;;;;10.00;7.10;;;26.20;34.40;;;;;;4993789;28;20430;-49
2023/07/08 00:12:58;;;;;;;9.90;7.70;;;26.00;35.10;;;;;;4993975;28;20473;-49
2023/07/08 00:15:28;;;;;;;10.20;7.07;;;26.00;35.30;;;;;;4993452;28;20437;-49
2023/07/08 00:17:54;;;;;;;8.60;7.10;;;26.10;35.70;;;;;;5000874;28;21043;-50
2023/07/08 00:20:42;;;;;;;8.47;6.53;;;26.00;35.80;;;;;;5007488;28;20508;-49
2023/07/08 00:23:09;;;;;;;9.60;7.60;;;25.80;36.80;;;;;;5011843;28;20448;-52
2023/07/08 00:25:35;;;;;;;9.90;8.63;;;25.60;37.10;;;;;;4996954;28;20430;-50
2023/07/08 00:28:01;;;;;;;10.50;8.00;;;25.60;37.50;;;;;;4993389;28;20552;-51
2023/07/08 00:30:31;;;;;;;8.40;7.47;;;25.60;37.50;;;;;;4993048;28;20202;-49
2023/07/08 00:32:57;;;;;;;10.83;7.40;;;25.30;37.90;;;;;;4993451;28;20426;-49
2023/07/08 00:35:38;;;;;;;7.87;7.07;;;25.30;38.20;;;;;;4993200;28;20428;-49
2023/07/08 00:38:19;;;;;;;9.27;7.57;;;25.30;38.40;;;;;;4993223;28;20438;-51
2023/07/08 00:41:11;;;;;;;10.57;8.23;;;25.20;38.50;;;;;;4992732;28;20429;-51
2023/07/08 00:43:45;;;;;;;10.80;7.33;;;25.30;38.40;;;;;;4992464;28;20446;-50
2023/07/08 00:46:31;;;;;;;8.43;7.47;;;25.20;38.30;;;;;;4992932;28;20469;-49
2023/07/08 00:49:09;;;;;;;9.30;7.30;;;25.10;38.50;;;;;;4991220;28;20524;-49
2023/07/08 00:51:39;;;;;;;8.73;7.77;;;25.00;38.80;;;;;;4993308;28;20425;-49
2023/07/08 00:54:12;;;;;;;9.87;7.17;;;25.00;39.00;;;;;;4992744;28;20939;-49
2023/07/08 00:56:59;;;;;;;9.80;7.60;;;25.00;39.20;;;;;;4992950;28;20492;-50
2023/07/08 00:59:25;;;;;;;8.17;7.37;;;24.90;39.20;;;;;;4992628;28;20446;-50
2023/07/08 01:01:52;;;;;;;9.80;8.30;;;24.90;39.30;;;;;;4992796;28;20512;-52
2023/07/08 01:04:23;;;;;;;10.23;7.60;;;25.00;39.00;;;;;;4998146;28;20194;-49
2023/07/08 01:06:57;;;;;;;10.77;8.17;;;24.90;39.20;;;;;;4992763;28;20454;-50
2023/07/08 01:09:30;;;;;;;9.97;8.43;;;24.90;39.30;;;;;;4992279;28;20497;-50
2023/07/08 01:11:58;;;;;;;10.30;7.97;;;25.00;39.30;;;;;;4993077;28;20434;-52
2023/07/08 01:14:26;;;;;;;9.00;7.30;;;25.10;39.30;;;;;;4992316;28;20426;-50
2023/07/08 01:16:52;;;;;;;8.90;7.40;;;25.10;39.50;;;;;;4991075;28;20504;-53
2023/07/08 01:19:32;;;;;;;10.87;8.27;;;25.00;39.50;;;;;;5004936;28;20456;-49
2023/07/08 01:22:01;;;;;;;7.70;6.90;;;24.90;39.80;;;;;;5012056;28;20233;-51
2023/07/08 01:24:27;;;;;;;9.67;7.20;;;24.90;39.90;;;;;;5005298;28;20875;-49
2023/07/08 01:26:53;;;;;;;9.47;7.87;;;24.80;40.10;;;;;;4992539;28;21261;-51
2023/07/08 01:29:19;;;;;;;9.80;8.00;;;24.80;40.20;;;;;;4991931;28;21235;-50
2023/07/08 01:31:48;;;;;;;9.40;8.07;;;24.70;40.50;;;;;;4992458;28;20457;-49
2023/07/08 01:34:15;;;;;;;8.10;7.30;;;24.70;40.50;;;;;;4991933;28;20437;-49
2023/07/08 01:36:45;;;;;;;8.20;6.90;;;24.80;40.50;;;;;;4991920;28;20429;-49
2023/07/08 01:39:17;;;;;;;8.50;7.03;;;24.90;40.30;;;;;;4991738;28;20425;-49
2023/07/08 01:41:44;;;;;;;10.30;8.00;;;24.90;40.20;;;;;;4992306;28;20551;-49
2023/07/08 01:44:27;;;;;;;8.73;7.77;;;24.80;40.40;;;;;;4990356;28;20458;-49
2023/07/08 01:46:56;;;;;;;9.77;7.23;;;24.80;40.40;;;;;;4991882;28;21192;-49
2023/07/08 01:49:22;;;;;;;9.77;7.10;;;24.50;41.00;;;;;;4991845;28;20494;-50
2023/07/08 01:51:49;;;;;;;9.10;7.53;;;24.60;40.60;;;;;;4992184;28;20426;-49
2023/07/08 01:54:14;;;;;;;9.77;7.57;;;24.70;40.60;;;;;;4991613;28;21284;-49
2023/07/08 01:56:40;;;;;;;12.30;8.00;;;24.80;40.40;;;;;;4991689;28;20426;-49
2023/07/08 01:59:06;;;;;;;9.40;8.17;;;24.80;40.50;;;;;;4991501;28;20634;-50
2023/07/08 02:01:31;;;;;;;10.13;7.70;;;24.80;40.80;;;;;;4991859;28;20945;-51
2023/07/08 02:03:57;;;;;;;10.67;8.20;;;24.70;40.90;;;;;;4997078;28;20574;-52
2023/07/08 02:06:22;;;;;;;12.10;9.80;;;24.70;41.00;;;;;;4992803;28;20237;-52
2023/07/08 02:08:50;;;;;;;10.07;8.00;;;24.70;41.00;;;;;;4991902;28;20249;-49
2023/07/08 02:11:15;;;;;;;10.80;9.50;;;24.70;40.90;;;;;;4989733;28;20240;-49
2023/07/08 02:13:41;;;;;;;13.60;9.37;;;24.80;40.80;;;;;;4991288;28;20466;-48
2023/07/08 02:16:07;;;;;;;9.67;7.53;;;24.80;40.70;;;;;;4991126;28;20246;-49
2023/07/08 02:18:33;;;;;;;9.17;8.20;;;24.80;40.50;;;;;;4998952;28;20261;-49
2023/07/08 02:20:58;;;;;;;8.33;7.50;;;24.90;40.50;;;;;;5010067;28;20473;-49
2023/07/08 02:23:25;;;;;;;8.90;8.03;;;24.80;40.50;;;;;;5011464;28;20556;-49
2023/07/08 02:25:55;;;;;;;9.40;7.33;;;24.70;40.70;;;;;;4992670;28;20190;-49
2023/07/08 02:28:20;;;;;;;9.20;7.70;;;24.60;41.00;;;;;;4991656;28;20426;-50
2023/07/08 02:30:46;;;;;;;9.53;7.33;;;24.50;41.20;;;;;;4991007;28;20995;-50
2023/07/08 02:33:17;;;;;;;11.67;6.87;;;24.40;41.60;;;;;;4991289;28;20203;-49
2023/07/08 02:35:44;;;;;;;9.93;7.43;;;24.30;41.60;;;;;;4990861;28;20202;-51
2023/07/08 02:38:09;;;;;;;9.40;7.37;;;24.30;41.60;;;;;;4989342;28;20434;-50
2023/07/08 02:40:35;;;;;;;9.43;7.60;;;24.30;41.60;;;;;;4990910;28;20426;-49
2023/07/08 02:43:00;;;;;;;8.83;7.53;;;24.20;41.80;;;;;;5005221;28;20273;-53
2023/07/08 02:45:26;;;;;;;7.73;6.80;;;24.40;42.20;;;;;;5010437;28;20828;-50
2023/07/08 02:47:52;;;;;;;9.30;8.27;;;24.40;42.20;;;;;;5010820;28;20205;-52
2023/07/08 02:50:18;;;;;;;9.30;7.47;;;24.50;42.00;;;;;;5010476;28;20641;-49
2023/07/08 02:52:44;;;;;;;8.60;7.10;;;24.60;41.70;;;;;;5010968;28;20255;-49
2023/07/08 02:55:10;;;;;;;8.40;7.53;;;24.40;41.80;;;;;;5010217;28;20421;-49
2023/07/08 02:57:35;;;;;;;7.90;7.10;;;24.30;41.90;;;;;;5010719;28;20198;-49
2023/07/08 03:00:04;;;;;;;10.33;6.47;;;24.30;41.90;;;;;;5010364;28;20194;-51
2023/07/08 03:02:29;;;;;;;10.73;7.60;;;24.30;41.80;;;;;;5010449;28;20624;-49
2023/07/08 03:04:58;;;;;;;9.33;7.10;;;24.30;42.00;;;;;;4994856;28;20521;-51
2023/07/08 03:07:24;;;;;;;8.77;7.73;;;24.20;42.00;;;;;;4990614;28;20198;-49
2023/07/08 03:09:50;;;;;;;9.27;7.33;;;24.20;42.00;;;;;;4990748;28;20429;-49
2023/07/08 03:12:15;;;;;;;8.97;7.10;;;24.00;42.10;;;;;;4991320;28;20198;-49
2023/07/08 03:14:41;;;;;;;12.27;7.30;;;24.00;42.60;;;;;;4990745;28;20475;-50
2023/07/08 03:17:07;;;;;;;8.23;7.43;;;23.80;43.00;;;;;;4991330;28;20266;-49
2023/07/08 03:19:32;;;;;;;9.50;7.60;;;23.80;43.10;;;;;;5004503;28;20209;-51
2023/07/08 03:21:58;;;;;;;8.63;7.73;;;23.90;43.00;;;;;;5010572;28;20232;-49
2023/07/08 03:24:24;;;;;;;8.77;7.13;;;23.90;43.10;;;;;;5005817;28;20202;-49
2023/07/08 03:26:54;;;;;;;8.43;7.47;;;23.80;43.00;;;;;;4994703;28;20448;-49
2023/07/08 03:29:21;;;;;;;8.83;7.37;;;23.60;43.30;;;;;;4994032;28;20724;-49
2023/07/08 03:31:46;;;;;;;9.17;7.83;;;23.40;43.50;;;;;;4993104;28;20926;-48
2023/07/08 03:34:16;;;;;;;8.60;7.10;;;23.40;43.50;;;;;;4994449;28;20431;-51
2023/07/08 03:36:51;;;;;;;8.60;7.40;;;23.60;43.00;;;;;;4994400;28;20194;-50
2023/07/08 03:39:22;;;;;;;8.60;7.40;;;23.70;42.70;;;;;;4994284;28;20897;-49
2023/07/08 03:41:49;;;;;;;8.53;7.27;;;23.80;42.50;;;;;;4994749;28;20544;-49
2023/07/08 03:44:17;;;;;;;10.63;8.67;;;23.90;42.50;;;;;;4994329;28;20461;-49
2023/07/08 03:46:49;;;;;;;8.73;6.57;;;23.90;42.20;;;;;;4994205;28;20430;-50
2023/07/08 03:49:16;;;;;;;11.47;7.87;;;23.80;42.10;;;;;;4994168;28;20438;-50
2023/07/08 03:51:42;;;;;;;8.90;7.50;;;23.80;42.60;;;;;;4994117;28;21262;-49
2023/07/08 03:54:13;;;;;;;9.60;8.07;;;23.80;42.80;;;;;;4993794;28;20429;-48
2023/07/08 03:56:38;;;;;;;7.80;6.83;;;23.90;42.60;;;;;;4994002;28;20541;-50
2023/07/08 03:59:04;;;;;;;8.50;6.83;;;24.00;42.40;;;;;;4992570;28;20528;-49
2023/07/08 04:01:30;;;;;;;10.70;6.73;;;24.00;42.20;;;;;;4994096;28;20233;-50
2023/07/08 04:03:57;;;;;;;9.17;7.50;;;24.10;42.30;;;;;;4999705;28;20273;-50
2023/07/08 04:06:24;;;;;;;9.20;7.30;;;24.10;42.10;;;;;;4994254;28;20199;-50
2023/07/08 04:08:51;;;;;;;8.60;7.13;;;24.10;42.00;;;;;;4994520;28;20875;-49
2023/07/08 04:11:19;;;;;;;10.77;7.57;;;24.00;42.10;;;;;;4993500;28;20983;-49
2023/07/08 04:13:46;;;;;;;9.33;7.37;;;23.90;42.30;;;;;;4994088;28;20426;-49
2023/07/08 04:16:16;;;;;;;10.63;7.60;;;23.90;42.60;;;;;;4993394;28;20523;-49
2023/07/08 04:18:42;;;;;;;9.00;7.27;;;24.00;42.50;;;;;;5001806;28;20987;-51
2023/07/08 04:21:07;;;;;;;8.43;6.60;;;24.00;42.20;;;;;;5012732;28;20477;-49
2023/07/08 04:23:33;;;;;;;7.90;7.10;;;24.00;42.10;;;;;;5013493;28;20869;-49
2023/07/08 04:25:59;;;;;;;8.23;7.33;;;24.00;42.10;;;;;;4992240;28;20269;-49
2023/07/08 04:28:24;;;;;;;7.43;6.30;;;24.00;42.10;;;;;;4993400;28;20245;-49
2023/07/08 04:30:50;;;;;;;8.90;6.70;;;24.00;42.10;;;;;;4993435;28;20252;-49
2023/07/08 04:33:16;;;;;;;10.20;6.87;;;24.00;42.20;;;;;;4993478;28;20199;-50
2023/07/08 04:35:43;;;;;;;7.37;6.57;;;23.80;42.30;;;;;;4992460;28;20190;-50
2023/07/08 04:38:27;;;;;;;7.60;6.70;;;23.60;42.80;;;;;;4993243;28;20422;-49
2023/07/08 04:40:54;;;;;;;7.90;7.10;;;23.50;43.10;;;;;;4993193;28;20434;-49
2023/07/08 04:43:21;;;;;;;6.97;6.27;;;23.50;43.10;;;;;;4993518;28;20422;-48
2023/07/08 04:45:53;;;;;;;8.77;7.53;;;23.60;43.00;;;;;;4993125;28;20509;-50
2023/07/08 04:48:21;;;;;;;6.93;6.23;;;23.60;43.10;;;;;;4993163;28;20433;-49
2023/07/08 04:50:50;;;;;;;7.27;5.97;;;23.60;43.20;;;;;;4992874;28;20473;-49
2023/07/08 04:53:16;;;;;;;14.80;6.97;;;23.70;43.00;;;;;;4991728;28;20446;-49
2023/07/08 04:55:45;;;;;;;7.00;6.00;;;23.50;43.60;;;;;;4992881;28;20436;-49
2023/07/08 04:58:10;;;;;;;7.87;6.23;;;23.70;43.50;;;;;;4992954;28;20638;-49
2023/07/08 05:00:36;;;;;;;8.63;7.40;;;23.80;43.20;;;;;;4992493;28;20427;-51
2023/07/08 05:03:02;;;;;;;13.80;9.27;;;23.70;43.60;;;;;;4993326;28;20230;-51
2023/07/08 05:05:28;;;;;;;12.33;8.97;;;23.70;43.90;;;;;;4999421;28;20194;-49
2023/07/08 05:07:53;;;;;;;8.73;7.73;;;23.70;43.60;;;;;;4993002;28;20229;-49
2023/07/08 05:10:19;;;;;;;9.50;7.20;;;23.70;43.50;;;;;;4992871;28;20603;-49
2023/07/08 05:12:46;;;;;;;8.50;7.30;;;23.90;43.40;;;;;;4992815;28;20226;-49
2023/07/08 05:15:11;;;;;;;8.80;6.80;;;23.70;43.80;;;;;;4992389;28;20193;-49
2023/07/08 05:17:38;;;;;;;10.43;7.00;;;23.60;43.60;;;;;;4997793;28;20425;-49
2023/07/08 05:20:09;;;;;;;8.00;6.47;;;23.60;43.80;;;;;;5004399;28;20190;-49
2023/07/08 05:22:35;;;;;;;7.90;6.97;;;23.60;43.90;;;;;;5012120;28;20494;-53
2023/07/08 05:25:01;;;;;;;7.73;6.90;;;23.70;43.80;;;;;;5000383;28;20426;-51
2023/07/08 05:27:27;;;;;;;6.97;5.90;;;23.60;44.00;;;;;;4992333;28;20245;-50
2023/07/08 05:29:53;;;;;;;7.40;6.50;;;23.70;44.10;;;;;;4991897;28;20202;-53
2023/07/08 05:32:19;;;;;;;7.37;6.60;;;23.80;43.70;;;;;;4992766;28;20476;-49
2023/07/08 05:34:45;;;;;;;7.37;6.60;;;23.70;43.70;;;;;;4991955;28;20484;-50
2023/07/08 05:37:12;;;;;;;8.60;6.73;;;23.90;43.30;;;;;;4991909;28;20422;-52
2023/07/08 05:39:37;;;;;;;8.10;7.27;;;24.10;43.00;;;;;;4992029;28;20433;-51
2023/07/08 05:42:03;;;;;;;8.50;7.17;;;24.30;43.00;;;;;;4992270;28;20481;-49
2023/07/08 05:44:29;;;;;;;7.83;7.03;;;24.50;42.70;;;;;;4991790;28;20225;-49
2023/07/08 05:46:54;;;;;;;8.90;6.93;;;24.80;42.30;;;;;;4989249;28;20200;-49
2023/07/08 05:49:20;;;;;;;8.70;6.80;;;24.80;41.20;;;;;;4991761;28;20190;-51
2023/07/08 05:51:46;;;;;;;8.53;6.70;;;24.80;42.40;;;;;;4992008;28;20187;-51
2023/07/08 05:54:12;;;;;;;7.17;6.17;;;25.20;42.30;;;;;;4991688;28;20202;-51
2023/07/08 05:56:38;;;;;;;9.13;7.07;;;25.50;41.70;;;;;;4991673;28;20546;-52
2023/07/08 05:59:03;;;;;;;7.57;6.80;;;25.70;40.70;;;;;;4991604;28;20673;-50
2023/07/08 06:01:30;;;;;;;8.57;6.80;;;25.80;40.60;;;;;;4991891;28;20250;-49
2023/07/08 06:03:58;;;;;;;7.50;6.33;;;26.00;40.40;;;;;;4997253;28;20190;-50
2023/07/08 06:06:24;;;;;;;8.47;6.77;;;26.10;40.10;;;;;;5011176;28;20437;-49
2023/07/08 06:08:49;;;;;;;8.17;6.70;;;26.20;39.70;;;;;;5011334;28;20421;-54
2023/07/08 06:11:16;;;;;;;7.73;6.87;;;26.40;39.20;;;;;;5010859;28;21212;-50
2023/07/08 06:13:41;;;;;;;9.10;6.40;;;26.40;39.10;;;;;;5009895;28;20198;-50
2023/07/08 06:16:07;;;;;;;10.30;7.00;;;26.60;38.30;;;;;;5010181;28;20476;-53
2023/07/08 06:18:32;;;;;;;8.10;6.57;;;26.80;38.50;;;;;;5006167;28;20198;-49
2023/07/08 06:20:58;;;;;;;6.67;5.97;;;26.90;38.10;;;;;;5010247;28;20221;-51
2023/07/08 06:23:25;;;;;;;9.13;7.13;;;27.10;37.60;;;;;;5011320;28;20218;-49
2023/07/08 06:25:51;;;;;;;8.03;6.80;;;27.20;37.60;;;;;;4992965;28;20268;-49
2023/07/08 06:28:17;;;;;;;7.23;6.37;;;27.40;37.50;;;;;;4991346;28;20851;-51
2023/07/08 06:30:43;;;;;;;7.87;7.07;;;27.70;37.80;;;;;;4990784;28;20426;-50
2023/07/08 06:33:09;;;;;;;8.20;7.30;;;27.90;35.80;;;;;;4991614;28;20650;-52
2023/07/08 06:35:34;;;;;;;7.17;6.47;;;28.10;35.00;;;;;;4990890;28;20469;-51
2023/07/08 06:38:00;;;;;;;8.93;6.47;;;28.20;34.70;;;;;;4991020;28;20205;-49
2023/07/08 06:40:25;;;;;;;7.13;5.83;;;28.40;34.40;;;;;;4989228;28;20194;-53
2023/07/08 06:42:51;;;;;;;7.70;6.90;;;28.50;34.60;;;;;;4991638;28;20693;-49
2023/07/08 06:45:16;;;;;;;7.83;7.03;;;28.60;34.50;;;;;;4991264;28;20206;-49
2023/07/08 06:47:42;;;;;;;8.50;7.40;;;28.70;34.50;;;;;;4990835;28;20284;-54
2023/07/08 06:50:08;;;;;;;9.27;7.53;;;28.60;34.70;;;;;;4990448;28;20214;-51
2023/07/08 06:52:36;;;;;;;8.80;7.07;;;28.50;34.90;;;;;;4991269;28;20195;-50
2023/07/08 06:55:03;;;;;;;7.77;6.77;;;28.60;34.90;;;;;;4990697;28;20959;-54
2023/07/08 06:57:29;;;;;;;15.87;8.30;;;28.40;35.10;;;;;;4990796;28;20422;-52
2023/07/08 06:59:54;;;;;;;23.07;8.20;;;28.50;34.80;;;;;;4990315;28;20979;-52
2023/07/08 07:02:20;;;;;;;13.40;6.93;;;28.70;35.20;;;;;;4990952;28;20248;-51
2023/07/08 07:04:46;;;;;;;9.50;7.10;;;29.00;34.60;;;;;;4997659;28;20241;-52
2023/07/08 07:07:12;;;;;;;12.03;7.37;;;29.20;34.50;;;;;;4990323;28;20229;-50
2023/07/08 07:09:38;;;;;;;10.93;7.50;;;29.50;34.20;;;;;;4989392;28;20610;-51
2023/07/08 07:12:06;;;;;;;13.93;8.13;;;29.70;34.30;;;;;;4990724;28;20429;-51
2023/07/08 07:14:32;;;;;;;11.43;7.23;;;29.70;33.90;;;;;;4990585;28;20194;-54
2023/07/08 07:16:57;;;;;;;9.53;6.90;;;29.70;33.90;;;;;;4990676;28;20508;-54
2023/07/08 07:19:23;;;;;;;8.40;6.87;;;29.80;33.70;;;;;;5003952;28;20710;-53
2023/07/08 07:21:48;;;;;;;12.00;6.60;;;29.80;33.50;;;;;;5010617;28;20224;-50
2023/07/08 07:24:14;;;;;;;10.60;7.50;;;29.80;34.00;;;;;;5005008;28;20202;-52
2023/07/08 07:26:40;;;;;;;9.87;6.73;;;29.90;34.00;;;;;;4990819;28;20285;-54
2023/07/08 07:29:05;;;;;;;9.77;6.43;;;29.90;34.00;;;;;;4990377;28;20241;-52
2023/07/08 07:31:32;;;;;;;7.40;6.63;;;30.00;33.90;;;;;;4990657;28;20213;-51
2023/07/08 07:33:58;;;;;;;11.70;7.73;;;30.00;33.80;;;;;;4990575;28;20261;-51
2023/07/08 07:36:24;;;;;;;8.47;7.27;;;30.10;34.00;;;;;;4988842;28;20472;-52
2023/07/08 07:38:50;;;;;;;9.20;7.03;;;30.20;34.10;;;;;;4991051;28;20832;-51
2023/07/08 07:41:16;;;;;;;9.37;6.50;;;30.20;34.20;;;;;;4989992;28;20238;-51
2023/07/08 07:43:41;;;;;;;8.73;6.23;;;30.30;34.20;;;;;;4990787;28;20529;-54
2023/07/08 07:46:07;;;;;;;7.30;6.43;;;30.20;34.20;;;;;;4989787;28;20226;-53
2023/07/08 07:48:34;;;;;;;9.10;5.87;;;30.20;34.30;;;;;;4990462;28;20203;-52
2023/07/08 07:50:59;;;;;;;7.73;6.33;;;30.30;34.40;;;;;;4990152;28;20433;-55
2023/07/08 07:53:25;;;;;;;6.60;5.90;;;30.30;34.50;;;;;;4990739;28;20430;-54
2023/07/08 07:56:03;;;;;;;8.20;6.53;;;30.30;34.50;;;;;;4990115;28;20985;-51
2023/07/08 07:58:30;;;;;;;7.90;6.77;;;30.20;34.60;;;;;;4990578;28;20230;-52
2023/07/08 08:00:55;;;;;;;6.50;5.90;;;30.20;34.30;;;;;;4990101;28;20492;-53
2023/07/08 08:03:21;;;;;;;7.30;5.87;;;30.40;34.30;;;;;;4990079;28;20426;-55
2023/07/08 08:05:47;;;;;;;6.10;5.37;;;30.50;34.40;;;;;;4996672;28;20194;-53
2023/07/08 08:08:13;;;;;;;8.30;5.80;;;30.60;34.40;;;;;;4990063;28;20199;-54
2023/07/08 08:10:38;;;;;;;6.40;5.37;;;30.60;34.30;;;;;;4990806;28;20436;-50
2023/07/08 08:13:04;;;;;;;7.50;5.80;;;30.70;34.50;;;;;;4994022;28;20226;-51
2023/07/08 08:15:30;;;;;;;10.43;6.23;;;30.70;34.60;;;;;;4993340;28;20230;-53
2023/07/08 08:17:56;;;;;;;7.20;6.00;;;30.80;34.70;;;;;;5000941;28;20324;-55
2023/07/08 08:20:25;;;;;;;8.10;6.63;;;31.00;34.50;;;;;;5006395;28;20506;-53
2023/07/08 08:22:51;;;;;;;7.83;5.90;;;31.20;34.40;;;;;;5013696;28;20596;-55
2023/07/08 08:25:19;;;;;;;9.40;6.73;;;31.30;34.40;;;;;;4999551;28;20434;-55
2023/07/08 08:27:45;;;;;;;8.63;6.43;;;31.40;34.40;;;;;;4993576;28;20213;-55
2023/07/08 08:30:11;;;;;;;9.93;5.70;;;31.60;34.30;;;;;;4991611;28;20502;-53
2023/07/08 08:32:37;;;;;;;6.10;5.50;;;31.80;33.70;;;;;;4993766;28;20222;-55
2023/07/08 08:35:03;;;;;;;6.17;5.57;;;32.10;33.10;;;;;;4993132;28;20901;-55
2023/07/08 08:37:29;;;;;;;7.20;5.27;;;32.40;33.10;;;;;;4993425;28;20202;-57
2023/07/08 08:39:54;;;;;;;7.47;6.73;;;32.80;32.40;;;;;;4992897;28;20430;-56
2023/07/08 08:42:33;;;;;;;6.33;5.73;;;33.00;31.40;;;;;;4993783;28;20264;-56
2023/07/08 08:45:01;;;;;;;6.67;5.93;;;33.30;31.10;;;;;;4993155;28;20926;-56
2023/07/08 08:47:40;;;;;;;11.73;6.63;;;33.60;30.40;;;;;;4992900;28;20421;-56
2023/07/08 08:50:26;;;;;;;5.90;5.30;;;33.70;30.20;;;;;;4992957;28;20425;-56
2023/07/08 08:52:54;;;;;;;7.37;5.67;;;33.80;29.90;;;;;;4993400;28;20508;-56
2023/07/08 08:55:24;;;;;;;7.27;6.27;;;33.80;30.20;;;;;;4992835;28;20430;-56
2023/07/08 08:58:11;;;;;;;6.53;5.80;;;33.60;30.10;;;;;;4991299;28;20434;-57
2023/07/08 09:00:54;;;;;;;6.80;5.53;;;33.60;29.90;;;;;;4992661;28;20449;-56
2023/07/08 09:03:36;;;;;;;7.80;4.87;;;33.80;29.60;;;;;;4994190;28;20452;-57
2023/07/08 09:06:18;;;;;;;5.30;4.27;;;33.90;29.30;;;;;;4996153;28;20439;-57
2023/07/08 09:08:45;;;;;;;7.30;5.50;;;34.20;29.30;;;;;;4993064;28;20529;-56
2023/07/08 09:11:27;;;;;;;5.53;4.50;;;34.20;29.10;;;;;;4992626;28;20430;-56
2023/07/08 09:13:53;;;;;;;7.77;4.83;;;34.20;29.00;;;;;;4992927;28;20955;-56
2023/07/08 09:16:45;;;;;;;6.47;5.73;;;34.10;29.10;;;;;;4992153;28;20477;-57
2023/07/08 09:19:24;;;;;;;6.37;5.40;;;34.00;29.50;;;;;;4983872;28;20975;-56
2023/07/08 09:21:59;;;;;;;5.70;5.07;;;34.20;29.60;;;;;;4992718;28;20489;-56
2023/07/08 09:24:33;;;;;;;6.83;5.13;;;34.40;29.40;;;;;;4990736;28;20452;-56
2023/07/08 09:27:01;;;;;;;8.40;5.50;;;34.50;28.80;;;;;;4992334;28;20480;-57
2023/07/08 09:29:28;;;;;;;7.60;4.83;;;34.60;28.60;;;;;;4992026;28;20430;-56
2023/07/08 09:31:54;;;;;;;5.63;4.90;;;34.80;29.00;;;;;;4992729;28;20446;-57
2023/07/08 09:34:23;;;;;;;9.50;5.17;;;35.10;29.20;;;;;;4992031;28;20437;-57
2023/07/08 09:36:50;;;;;;;7.43;4.90;;;35.30;28.80;;;;;;4992175;28;20959;-58
2023/07/08 09:39:19;;;;;;;4.80;3.90;;;35.50;27.90;;;;;;4991960;28;20496;-57
2023/07/08 09:41:48;;;;;;;5.10;4.60;;;35.80;27.40;;;;;;4992100;28;20584;-57
2023/07/08 09:44:26;;;;;;;5.30;4.80;;;36.10;27.70;;;;;;4991779;28;20422;-56
2023/07/08 09:46:57;;;;;;;5.90;5.17;;;36.30;27.50;;;;;;4992045;28;20468;-58
2023/07/08 09:49:35;;;;;;;6.70;4.67;;;36.60;27.80;;;;;;4991907;28;20480;-57
2023/07/08 09:52:02;;;;;;;5.70;5.20;;;36.70;26.80;;;;;;4990896;28;20432;-58
2023/07/08 09:54:30;;;;;;;4.23;3.63;;;36.80;26.30;;;;;;4991526;28;20444;-58
2023/07/08 09:57:18;;;;;;;4.07;3.27;;;36.80;26.10;;;;;;4991764;28;20435;-58
2023/07/08 09:59:52;;;;;;;4.27;3.80;;;36.90;25.00;;;;;;4991058;28;20463;-58
2023/07/08 10:02:20;;;;;;;3.37;3.07;;;36.50;25.50;;;;;;4992072;28;20962;-57
2023/07/08 10:04:46;;;;;;;6.00;5.10;;;36.30;26.20;;;;;;4998283;28;20437;-57
2023/07/08 10:07:16;;;;;;;4.20;3.80;;;36.20;26.70;;;;;;4991670;28;21036;-57
2023/07/08 10:09:42;;;;;;;5.80;4.00;;;36.30;26.70;;;;;;4991601;28;20555;-58
2023/07/08 10:12:13;;;;;;;4.40;4.00;;;36.10;26.90;;;;;;4992101;28;20773;-58
2023/07/08 10:14:52;;;;;;;4.50;3.93;;;36.20;26.80;;;;;;4991512;28;20201;-57
2023/07/08 10:17:20;;;;;;;6.00;3.80;;;36.30;26.60;;;;;;4992160;28;20460;-58
2023/07/08 10:19:46;;;;;;;4.67;3.80;;;36.40;26.60;;;;;;5005657;28;20435;-58
2023/07/08 10:22:25;;;;;;;3.87;3.53;;;36.30;26.60;;;;;;5011319;28;20836;-57
2023/07/08 10:25:23;;;;;;;4.47;3.77;;;36.10;26.60;;;;;;5001026;28;20566;-57
2023/07/08 10:28:03;;;;;;;4.10;3.77;;;35.80;27.00;;;;;;4991228;28;20484;-58
2023/07/08 10:30:42;;;;;;;5.77;4.80;;;35.80;27.00;;;;;;4990836;28;20441;-58
2023/07/08 10:33:52;;;;;;;4.63;4.23;;;35.80;27.20;;;;;;4991281;28;20485;-58
2023/07/08 10:36:23;;;;;;;5.30;4.80;;;36.20;27.40;;;;;;4990594;28;20461;-57
2023/07/08 10:39:21;;;;;;;6.57;4.63;;;36.40;27.00;;;;;;4991519;28;20457;-58
2023/07/08 10:42:13;;;;;;;4.83;4.17;;;36.50;26.90;;;;;;4989160;28;20511;-58
2023/07/08 10:45:03;;;;;;;5.80;5.20;;;36.60;26.50;;;;;;4989281;28;20507;-58
2023/07/08 10:47:32;;;;;;;4.63;4.17;;;36.30;26.70;;;;;;4991074;28;20426;-58
2023/07/08 10:50:15;;;;;;;9.77;3.73;;;36.40;26.60;;;;;;4990662;28;20815;-58
2023/07/08 10:53:14;;;;;;;11.30;4.30;;;35.90;27.00;;;;;;4991396;28;20773;-57
2023/07/08 10:55:57;;;;;;;4.83;3.10;;;35.90;27.30;;;;;;4990327;28;20847;-58
2023/07/08 10:58:59;;;;;;;4.20;3.13;;;35.70;27.00;;;;;;4991056;28;20438;-57
2023/07/08 11:01:49;;;;;;;6.60;3.60;;;35.70;26.80;;;;;;4987773;28;20856;-57
2023/07/08 11:04:27;;;;;;;3.67;3.30;;;35.60;26.90;;;;;;4998127;28;20429;-57
2023/07/08 11:07:03;;;;;;;5.10;3.33;;;35.60;27.00;;;;;;4990975;28;20440;-57
2023/07/08 11:09:44;;;;;;;4.47;3.13;;;35.60;27.20;;;;;;4990699;28;20459;-58
2023/07/08 11:12:37;;;;;;;4.13;3.50;;;36.00;27.00;;;;;;4989496;28;20460;-56
2023/07/08 11:15:25;;;;;;;3.60;3.30;;;35.90;26.40;;;;;;4990492;28;20449;-57
2023/07/08 11:18:19;;;;;;;4.27;3.87;;;35.80;26.70;;;;;;4997632;28;20483;-57
2023/07/08 11:21:06;;;;;;;3.40;3.00;;;36.00;26.60;;;;;;4987560;28;20442;-59
2023/07/08 11:23:42;;;;;;;3.47;3.17;;;36.40;26.30;;;;;;4990926;28;20499;-57
2023/07/08 11:26:20;;;;;;;2.80;2.60;;;36.50;25.70;;;;;;4978513;28;20444;-58
2023/07/08 11:28:47;;;;;;;4.47;3.20;;;36.80;25.50;;;;;;4990701;28;20437;-58
2023/07/08 11:31:14;;;;;;;3.97;3.00;;;37.00;25.20;;;;;;4990766;28;20453;-58
2023/07/08 11:33:41;;;;;;;16.67;3.60;;;37.20;25.10;;;;;;4990805;28;20433;-59
2023/07/08 11:36:07;;;;;;;3.80;3.20;;;37.30;25.10;;;;;;4989979;28;20905;-59
2023/07/08 11:38:38;;;;;;;3.93;3.13;;;37.30;25.10;;;;;;4989649;28;20456;-58
2023/07/08 11:41:12;;;;;;;4.03;3.00;;;37.10;25.20;;;;;;4990274;28;20480;-58
2023/07/08 11:43:50;;;;;;;3.33;2.93;;;36.90;25.10;;;;;;4990876;28;20437;-58
2023/07/08 11:46:21;;;;;;;4.37;3.07;;;36.90;25.40;;;;;;4991710;28;20537;-58
2023/07/08 11:48:51;;;;;;;3.47;2.90;;;37.10;24.90;;;;;;4995064;28;22299;-58
2023/07/08 11:51:24;;;;;;;4.10;3.00;;;37.40;24.70;;;;;;4994002;28;20508;-58
2023/07/08 11:54:03;;;;;;;3.23;2.73;;;37.60;24.60;;;;;;4994264;28;20429;-58
2023/07/08 11:56:55;;;;;;;4.90;3.37;;;37.90;24.10;;;;;;4993760;28;20444;-56
2023/07/08 11:59:22;;;;;;;3.97;2.90;;;37.90;24.00;;;;;;4994068;28;20495;-57
2023/07/08 12:01:51;;;;;;;2.80;2.60;;;37.60;23.80;;;;;;4994383;28;20488;-56
2023/07/08 12:04:50;;;;;;;3.97;2.50;;;37.20;24.40;;;;;;4999781;28;20451;-56
2023/07/08 12:07:44;;;;;;;4.10;2.60;;;37.30;24.60;;;;;;4992426;28;20429;-57
2023/07/08 12:10:35;;;;;;;3.10;2.80;;;37.50;24.60;;;;;;4993609;28;20465;-56
2023/07/08 12:13:01;;;;;;;6.60;2.77;;;38.00;24.20;;;;;;4990701;28;20459;-58
2023/07/08 12:15:29;;;;;;;4.53;2.33;;;38.10;23.90;;;;;;4993329;28;20795;-57
2023/07/08 12:18:10;;;;;;;2.13;1.93;;;37.90;24.10;;;;;;5001883;28;20190;-56
2023/07/08 12:20:39;;;;;;;3.27;2.63;;;38.00;23.40;;;;;;4990010;28;20459;-56
2023/07/08 12:23:14;;;;;;;4.43;3.10;;;38.20;23.00;;;;;;4993991;28;20491;-57
2023/07/08 12:25:40;;;;;;;3.47;2.80;;;38.50;23.10;;;;;;4993028;28;20433;-56
2023/07/08 12:28:05;;;;;;;2.87;2.57;;;38.60;23.20;;;;;;4993914;28;20413;-57
2023/07/08 12:30:32;;;;;;;4.03;2.50;;;38.50;23.00;;;;;;4993168;28;20190;-56
2023/07/08 12:33:00;;;;;;;2.77;2.20;;;38.70;23.10;;;;;;4992063;28;20236;-56
2023/07/08 12:35:29;;;;;;;3.43;2.93;;;38.70;23.00;;;;;;4993055;28;20440;-56
2023/07/08 12:38:31;;;;;;;2.70;2.30;;;38.70;22.60;;;;;;4993790;28;21000;-57
2023/07/08 12:41:00;;;;;;;3.17;2.87;;;38.70;22.70;;;;;;4980732;28;20487;-56
2023/07/08 12:43:26;;;;;;;3.60;2.73;;;38.80;22.40;;;;;;4993690;28;20425;-57
2023/07/08 12:45:52;;;;;;;2.73;2.53;;;38.90;22.40;;;;;;4992795;28;20417;-57
2023/07/08 12:48:18;;;;;;;2.63;2.43;;;39.20;23.30;;;;;;4993312;28;20441;-56
2023/07/08 12:50:43;;;;;;;2.70;2.50;;;39.40;22.30;;;;;;4993059;28;20280;-57
2023/07/08 12:53:12;;;;;;;4.73;2.93;;;39.30;22.50;;;;;;4993165;28;20222;-57
2023/07/08 12:55:43;;;;;;;3.03;2.73;;;39.30;22.30;;;;;;4992347;28;20221;-56
2023/07/08 12:58:25;;;;;;;4.60;2.77;;;39.30;22.20;;;;;;4992709;28;20452;-57
2023/07/08 13:00:51;;;;;;;5.30;2.97;;;39.40;22.30;;;;;;4991272;28;20425;-56